sensor_id;sensor_type;location;lat;lon;timestamp;temperature;humidity
11619;DHT22;5865;48.776;9.280;2022-12-04T00:36:29;2.00;99.90
11619;DHT22;5865;48.776;9.280;2022-12-04T00:38:58;2.00;99.90
11619;DHT22;5865;48.776;9.280;2022-12-04T00:41:27;2.10;99.90
11619;DHT22;5865;48.776;9.280;2022-12-04T00:51:19;2.10;99.90
11619;DHT22;5865;48.776;9.280;2022-12-04T00:56:18;2.20;99.90
11619;DHT22;5865;48.776;9.280;2022-12-04T01:01:15;2.20;99.90
11619;DHT22;5865;48.776;9.280;2022-12-04T01:06:17;2.20;99.90
11619;DHT22;5865;48.776;9.280;2022-12-04T01:25:57;2.10;99.90
11619;DHT22;5865;48.776;9.280;2022-12-04T01:45:44;2.10;99.90
11619;DHT22;5865;48.776;9.280;2022-12-04T01:48:25;2.10;99.90
11619;DHT22;5865;48.776;9.280;2022-12-04T01:51:00;2.00;99.90
11619;DHT22;5865;48.776;9.280;2022-12-04T01:58:27;2.10;99.90
11619;DHT22;5865;48.776;9.280;2022-12-04T02:01:00;2.10;99.90
11619;DHT22;5865;48.776;9.280;2022-12-04T02:08:24;2.20;99.90
11619;DHT22;5865;48.776;9.280;2022-12-04T02:11:02;2.20;99.90
11619;DHT22;5865;48.776;9.280;2022-12-04T02:13:37;2.20;99.90
11619;DHT22;5865;48.776;9.280;2022-12-04T02:16:14;2.20;99.90
11619;DHT22;5865;48.776;9.280;2022-12-04T02:18:50;2.10;99.90
11619;DHT22;5865;48.776;9.280;2022-12-04T02:26:39;2.00;99.90
11619;DHT22;5865;48.776;9.280;2022-12-04T02:29:13;2.20;99.90
11619;DHT22;5865;48.776;9.280;2022-12-04T02:31:48;2.20;99.90
11619;DHT22;5865;48.776;9.280;2022-12-04T02:39:23;2.20;99.90
11619;DHT22;5865;48.776;9.280;2022-12-04T02:41:55;2.20;99.90
11619;DHT22;5865;48.776;9.280;2022-12-04T02:44:26;2.20;99.90
11619;DHT22;5865;48.776;9.280;2022-12-04T02:46:56;2.20;99.90
11619;DHT22;5865;48.776;9.280;2022-12-04T02:49:29;2.10;99.90
11619;DHT22;5865;48.776;9.280;2022-12-04T02:51:59;2.10;99.90
11619;DHT22;5865;48.776;9.280;2022-12-04T02:54:30;2.00;99.90
11619;DHT22;5865;48.776;9.280;2022-12-04T02:57:00;2.00;99.90
11619;DHT22;5865;48.776;9.280;2022-12-04T02:59:32;2.00;99.90
11619;DHT22;5865;48.776;9.280;2022-12-04T03:02:06;2.10;99.90
11619;DHT22;5865;48.776;9.280;2022-12-04T03:04:35;2.10;99.90
11619;DHT22;5865;48.776;9.280;2022-12-04T03:07:09;2.10;99.90
11619;DHT22;5865;48.776;9.280;2022-12-04T03:09:41;2.10;99.90
11619;DHT22;5865;48.776;9.280;2022-12-04T03:12:15;2.10;99.90
11619;DHT22;5865;48.776;9.280;2022-12-04T03:17:18;2.10;99.90
11619;DHT22;5865;48.776;9.280;2022-12-04T03:19:50;2.10;99.90
11619;DHT22;5865;48.776;9.280;2022-12-04T03:22:20;2.10;99.90
11619;DHT22;5865;48.776;9.280;2022-12-04T03:24:50;2.10;99.90
11619;DHT22;5865;48.776;9.280;2022-12-04T03:27:24;2.20;99.90
11619;DHT22;5865;48.776;9.280;2022-12-04T03:29:58;2.20;99.90
11619;DHT22;5865;48.776;9.280;2022-12-04T03:32:30;2.20;99.90
11619;DHT22;5865;48.776;9.280;2022-12-04T03:35:02;2.10;99.90
11619;DHT22;5865;48.776;9.280;2022-12-04T03:37:35;2.10;99.90
11619;DHT22;5865;48.776;9.280;2022-12-04T03:40:07;2.10;99.90
11619;DHT22;5865;48.776;9.280;2022-12-04T03:42:40;2.10;99.90
11619;DHT22;5865;48.776;9.280;2022-12-04T03:45:17;2.10;99.90
11619;DHT22;5865;48.776;9.280;2022-12-04T03:47:50;2.10;99.90
11619;DHT22;5865;48.776;9.280;2022-12-04T03:50:25;2.00;99.90
11619;DHT22;5865;48.776;9.280;2022-12-04T03:52:59;2.10;99.90
11619;DHT22;5865;48.776;9.280;2022-12-04T03:55:31;2.00;99.90
11619;DHT22;5865;48.776;9.280;2022-12-04T03:58:04;2.10;99.90
11619;DHT22;5865;48.776;9.280;2022-12-04T04:00:40;2.10;99.90
11619;DHT22;5865;48.776;9.280;2022-12-04T04:03:25;2.10;99.90
11619;DHT22;5865;48.776;9.280;2022-12-04T04:05:56;2.10;99.90
11619;DHT22;5865;48.776;9.280;2022-12-04T04:08:28;2.10;99.90
11619;DHT22;5865;48.776;9.280;2022-12-04T04:11:04;2.10;99.90
11619;DHT22;5865;48.776;9.280;2022-12-04T04:13:36;2.10;99.90
11619;DHT22;5865;48.776;9.280;2022-12-04T04:16:27;2.00;99.90
11619;DHT22;5865;48.776;9.280;2022-12-04T04:19:14;2.00;99.90
11619;DHT22;5865;48.776;9.280;2022-12-04T04:22:01;2.10;99.90
11619;DHT22;5865;48.776;9.280;2022-12-04T04:24:50;2.10;99.90
11619;DHT22;5865;48.776;9.280;2022-12-04T04:32:19;2.10;99.90
11619;DHT22;5865;48.776;9.280;2022-12-04T04:34:51;2.20;99.90
11619;DHT22;5865;48.776;9.280;2022-12-04T04:37:26;2.20;99.90
11619;DHT22;5865;48.776;9.280;2022-12-04T04:42:33;2.20;99.90
11619;DHT22;5865;48.776;9.280;2022-12-04T04:45:05;2.20;99.90
11619;DHT22;5865;48.776;9.280;2022-12-04T04:47:41;2.20;99.90
11619;DHT22;5865;48.776;9.280;2022-12-04T04:50:11;2.30;99.90
11619;DHT22;5865;48.776;9.280;2022-12-04T04:52:42;2.20;99.90
11619;DHT22;5865;48.776;9.280;2022-12-04T04:55:12;2.30;99.90
11619;DHT22;5865;48.776;9.280;2022-12-04T04:57:40;2.20;99.90
11619;DHT22;5865;48.776;9.280;2022-12-04T05:00:10;2.20;99.90
11619;DHT22;5865;48.776;9.280;2022-12-04T05:02:39;2.20;99.90
11619;DHT22;5865;48.776;9.280;2022-12-04T05:05:08;2.20;99.90
11619;DHT22;5865;48.776;9.280;2022-12-04T05:07:35;2.20;99.90
11619;DHT22;5865;48.776;9.280;2022-12-04T05:10:03;2.20;99.90
11619;DHT22;5865;48.776;9.280;2022-12-04T05:12:30;2.10;99.90
11619;DHT22;5865;48.776;9.280;2022-12-04T05:17:25;2.30;99.90
11619;DHT22;5865;48.776;9.280;2022-12-04T05:19:56;2.10;99.90
11619;DHT22;5865;48.776;9.280;2022-12-04T05:22:25;2.10;99.90
11619;DHT22;5865;48.776;9.280;2022-12-04T05:24:53;2.20;99.90
11619;DHT22;5865;48.776;9.280;2022-12-04T05:27:23;2.50;99.90
11619;DHT22;5865;48.776;9.280;2022-12-04T05:29:51;2.50;99.90
11619;DHT22;5865;48.776;9.280;2022-12-04T05:32:20;2.20;99.90
11619;DHT22;5865;48.776;9.280;2022-12-04T05:34:47;2.40;99.90
11619;DHT22;5865;48.776;9.280;2022-12-04T05:37:19;2.50;99.90
11619;DHT22;5865;48.776;9.280;2022-12-04T05:39:46;2.70;99.90
11619;DHT22;5865;48.776;9.280;2022-12-04T05:44:41;2.60;99.90
11619;DHT22;5865;48.776;9.280;2022-12-04T05:47:10;2.70;99.90
11619;DHT22;5865;48.776;9.280;2022-12-04T05:49:38;2.70;99.90
11619;DHT22;5865;48.776;9.280;2022-12-04T05:54:34;2.70;99.90
11619;DHT22;5865;48.776;9.280;2022-12-04T05:57:01;2.70;99.90
11619;DHT22;5865;48.776;9.280;2022-12-04T05:59:28;2.60;99.90
11619;DHT22;5865;48.776;9.280;2022-12-04T06:01:56;2.40;99.90
11619;DHT22;5865;48.776;9.280;2022-12-04T06:06:51;2.40;99.90
11619;DHT22;5865;48.776;9.280;2022-12-04T06:09:19;2.40;99.90
11619;DHT22;5865;48.776;9.280;2022-12-04T06:14:16;2.30;99.90
11619;DHT22;5865;48.776;9.280;2022-12-04T06:16:45;2.30;99.90
11619;DHT22;5865;48.776;9.280;2022-12-04T06:19:14;2.30;99.90
11619;DHT22;5865;48.776;9.280;2022-12-04T06:24:12;2.30;99.90
11619;DHT22;5865;48.776;9.280;2022-12-04T06:26:40;2.20;99.90
11619;DHT22;5865;48.776;9.280;2022-12-04T06:29:10;2.20;99.90
11619;DHT22;5865;48.776;9.280;2022-12-04T06:34:12;2.30;99.90
11619;DHT22;5865;48.776;9.280;2022-12-04T06:36:40;2.20;99.90
11619;DHT22;5865;48.776;9.280;2022-12-04T06:39:09;2.20;99.90
11619;DHT22;5865;48.776;9.280;2022-12-04T06:41:36;2.20;99.90
11619;DHT22;5865;48.776;9.280;2022-12-04T06:46:33;2.20;99.90
11619;DHT22;5865;48.776;9.280;2022-12-04T06:49:01;2.20;99.90
11619;DHT22;5865;48.776;9.280;2022-12-04T06:53:58;2.30;99.90
11619;DHT22;5865;48.776;9.280;2022-12-04T06:56:28;2.30;99.90
11619;DHT22;5865;48.776;9.280;2022-12-04T06:58:57;2.20;99.90
11619;DHT22;5865;48.776;9.280;2022-12-04T07:01:27;2.20;99.90
11619;DHT22;5865;48.776;9.280;2022-12-04T07:03:56;2.20;99.90
11619;DHT22;5865;48.776;9.280;2022-12-04T07:06:25;2.20;99.90
11619;DHT22;5865;48.776;9.280;2022-12-04T07:08:54;2.20;99.90
11619;DHT22;5865;48.776;9.280;2022-12-04T07:11:21;2.20;99.90
11619;DHT22;5865;48.776;9.280;2022-12-04T07:13:48;2.30;99.90
11619;DHT22;5865;48.776;9.280;2022-12-04T07:16:20;2.20;99.90
11619;DHT22;5865;48.776;9.280;2022-12-04T07:18:48;2.40;99.90
11619;DHT22;5865;48.776;9.280;2022-12-04T07:21:20;2.50;99.90
11619;DHT22;5865;48.776;9.280;2022-12-04T07:23:48;2.40;99.90
11619;DHT22;5865;48.776;9.280;2022-12-04T07:26:16;2.40;99.90
11619;DHT22;5865;48.776;9.280;2022-12-04T07:28:43;2.50;99.90
11619;DHT22;5865;48.776;9.280;2022-12-04T07:31:13;2.40;99.90
11619;DHT22;5865;48.776;9.280;2022-12-04T07:33:40;2.40;99.90
11619;DHT22;5865;48.776;9.280;2022-12-04T07:36:10;2.40;99.90
11619;DHT22;5865;48.776;9.280;2022-12-04T07:38:39;2.40;99.90
11619;DHT22;5865;48.776;9.280;2022-12-04T07:41:07;2.30;99.90
11619;DHT22;5865;48.776;9.280;2022-12-04T07:43:34;2.50;99.90
11619;DHT22;5865;48.776;9.280;2022-12-04T07:46:04;2.50;99.90
11619;DHT22;5865;48.776;9.280;2022-12-04T07:48:31;2.50;99.90
11619;DHT22;5865;48.776;9.280;2022-12-04T07:51:02;2.50;99.90
11619;DHT22;5865;48.776;9.280;2022-12-04T07:53:36;2.60;99.90
11619;DHT22;5865;48.776;9.280;2022-12-04T07:58:33;2.60;99.90
11619;DHT22;5865;48.776;9.280;2022-12-04T08:01:07;2.70;99.90
11619;DHT22;5865;48.776;9.280;2022-12-04T08:06:04;2.80;99.90
11619;DHT22;5865;48.776;9.280;2022-12-04T08:08:32;2.80;99.90
11619;DHT22;5865;48.776;9.280;2022-12-04T08:21:14;3.00;99.90
11619;DHT22;5865;48.776;9.280;2022-12-04T08:23:57;3.00;99.90
11619;DHT22;5865;48.776;9.280;2022-12-04T08:32:00;3.20;99.90
11619;DHT22;5865;48.776;9.280;2022-12-04T08:34:29;3.20;99.90
11619;DHT22;5865;48.776;9.280;2022-12-04T08:40:27;3.00;99.90
11619;DHT22;5865;48.776;9.280;2022-12-04T08:43:02;2.90;99.90
11619;DHT22;5865;48.776;9.280;2022-12-04T08:45:29;3.30;99.90
11619;DHT22;5865;48.776;9.280;2022-12-04T08:47:56;4.00;99.90
11619;DHT22;5865;48.776;9.280;2022-12-04T08:50:23;3.00;99.90
11619;DHT22;5865;48.776;9.280;2022-12-04T08:53:04;3.10;99.90
11619;DHT22;5865;48.776;9.280;2022-12-04T08:55:38;3.10;99.90
11619;DHT22;5865;48.776;9.280;2022-12-04T08:58:19;3.10;99.90
11619;DHT22;5865;48.776;9.280;2022-12-04T09:00:46;3.20;99.90
11619;DHT22;5865;48.776;9.280;2022-12-04T09:03:27;3.20;99.90
11619;DHT22;5865;48.776;9.280;2022-12-04T09:06:10;3.20;99.90
11619;DHT22;5865;48.776;9.280;2022-12-04T09:08:38;3.20;99.90
11619;DHT22;5865;48.776;9.280;2022-12-04T09:17:30;2.80;99.90
11619;DHT22;5865;48.776;9.280;2022-12-04T09:25:35;2.90;99.90
11619;DHT22;5865;48.776;9.280;2022-12-04T09:28:04;2.90;99.90
11619;DHT22;5865;48.776;9.280;2022-12-04T09:30:31;3.00;99.90
11619;DHT22;5865;48.776;9.280;2022-12-04T09:42:48;3.60;99.90
11619;DHT22;5865;48.776;9.280;2022-12-04T09:45:41;2.90;99.90
11619;DHT22;5865;48.776;9.280;2022-12-04T09:48:11;3.00;99.90
11619;DHT22;5865;48.776;9.280;2022-12-04T09:50:55;3.00;99.90
11619;DHT22;5865;48.776;9.280;2022-12-04T09:53:33;3.00;99.90
11619;DHT22;5865;48.776;9.280;2022-12-04T09:56:18;3.00;99.90
11619;DHT22;5865;48.776;9.280;2022-12-04T10:01:55;3.00;99.90
11619;DHT22;5865;48.776;9.280;2022-12-04T10:04:24;3.10;99.90
11619;DHT22;5865;48.776;9.280;2022-12-04T10:07:10;3.10;99.90
11619;DHT22;5865;48.776;9.280;2022-12-04T10:09:54;3.10;99.90
11619;DHT22;5865;48.776;9.280;2022-12-04T10:12:31;3.00;99.90
11619;DHT22;5865;48.776;9.280;2022-12-04T10:15:24;3.10;99.90
11619;DHT22;5865;48.776;9.280;2022-12-04T10:21:13;3.00;99.90
11619;DHT22;5865;48.776;9.280;2022-12-04T10:24:14;3.00;99.90
11619;DHT22;5865;48.776;9.280;2022-12-04T10:26:59;3.00;99.90
11619;DHT22;5865;48.776;9.280;2022-12-04T10:29:42;3.00;99.90
11619;DHT22;5865;48.776;9.280;2022-12-04T10:32:30;3.00;99.90
11619;DHT22;5865;48.776;9.280;2022-12-04T10:35:19;3.00;99.90
11619;DHT22;5865;48.776;9.280;2022-12-04T10:44:04;3.00;99.90
11619;DHT22;5865;48.776;9.280;2022-12-04T10:46:33;3.00;99.90
11619;DHT22;5865;48.776;9.280;2022-12-04T10:49:16;3.00;99.90
11619;DHT22;5865;48.776;9.280;2022-12-04T10:51:58;3.00;99.90
11619;DHT22;5865;48.776;9.280;2022-12-04T10:54:45;2.90;99.90
11619;DHT22;5865;48.776;9.280;2022-12-04T10:57:14;3.00;99.90
11619;DHT22;5865;48.776;9.280;2022-12-04T11:02:32;3.10;99.90
11619;DHT22;5865;48.776;9.280;2022-12-04T11:05:23;3.00;99.90
11619;DHT22;5865;48.776;9.280;2022-12-04T11:08:05;3.10;99.90
11619;DHT22;5865;48.776;9.280;2022-12-04T11:10:55;3.10;99.90
11619;DHT22;5865;48.776;9.280;2022-12-04T11:13:37;3.10;99.90
11619;DHT22;5865;48.776;9.280;2022-12-04T11:54:22;3.40;99.90
11619;DHT22;5865;48.776;9.280;2022-12-04T11:57:17;6.30;99.90
11619;DHT22;5865;48.776;9.280;2022-12-04T12:00:09;3.50;99.90
11619;DHT22;5865;48.776;9.280;2022-12-04T12:03:09;3.50;99.90
11619;DHT22;5865;48.776;9.280;2022-12-04T12:06:15;3.70;99.90
11619;DHT22;5865;48.776;9.280;2022-12-04T12:09:08;3.80;99.90
11619;DHT22;5865;48.776;9.280;2022-12-04T12:12:09;3.80;99.90
11619;DHT22;5865;48.776;9.280;2022-12-04T12:15:04;3.80;99.90
11619;DHT22;5865;48.776;9.280;2022-12-04T12:17:40;3.80;99.90
11619;DHT22;5865;48.776;9.280;2022-12-04T12:20:30;3.80;99.90
11619;DHT22;5865;48.776;9.280;2022-12-04T12:23:22;3.80;99.90
11619;DHT22;5865;48.776;9.280;2022-12-04T12:26:09;3.80;99.90
11619;DHT22;5865;48.776;9.280;2022-12-04T12:29:04;3.80;99.90
11619;DHT22;5865;48.776;9.280;2022-12-04T12:32:07;3.80;99.90
11619;DHT22;5865;48.776;9.280;2022-12-04T12:34:50;3.80;99.90
11619;DHT22;5865;48.776;9.280;2022-12-04T12:37:40;3.80;99.90
11619;DHT22;5865;48.776;9.280;2022-12-04T12:40:29;3.90;99.90
11619;DHT22;5865;48.776;9.280;2022-12-04T12:43:14;3.90;99.90
11619;DHT22;5865;48.776;9.280;2022-12-04T12:49:12;3.90;99.90
11619;DHT22;5865;48.776;9.280;2022-12-04T12:51:57;3.90;99.90
11619;DHT22;5865;48.776;9.280;2022-12-04T12:54:35;3.80;99.90
11619;DHT22;5865;48.776;9.280;2022-12-04T12:57:25;3.80;99.90
11619;DHT22;5865;48.776;9.280;2022-12-04T12:59:56;3.70;99.90
11619;DHT22;5865;48.776;9.280;2022-12-04T13:02:27;3.70;99.90
11619;DHT22;5865;48.776;9.280;2022-12-04T13:04:59;3.50;99.90
11619;DHT22;5865;48.776;9.280;2022-12-04T13:07:40;3.50;99.90
11619;DHT22;5865;48.776;9.280;2022-12-04T13:10:14;3.40;99.90
11619;DHT22;5865;48.776;9.280;2022-12-04T13:12:45;3.40;99.90
11619;DHT22;5865;48.776;9.280;2022-12-04T13:15:14;3.40;99.90
11619;DHT22;5865;48.776;9.280;2022-12-04T13:17:43;3.40;99.90
11619;DHT22;5865;48.776;9.280;2022-12-04T13:23:53;5.70;99.90
11619;DHT22;5865;48.776;9.280;2022-12-04T13:26:44;3.50;99.90
11619;DHT22;5865;48.776;9.280;2022-12-04T13:29:43;3.20;99.90
11619;DHT22;5865;48.776;9.280;2022-12-04T13:32:47;3.20;99.90
11619;DHT22;5865;48.776;9.280;2022-12-04T13:35:34;3.20;99.90
11619;DHT22;5865;48.776;9.280;2022-12-04T13:38:25;3.20;99.90
11619;DHT22;5865;48.776;9.280;2022-12-04T14:00:36;3.30;99.90
11619;DHT22;5865;48.776;9.280;2022-12-04T14:03:23;3.40;99.90
11619;DHT22;5865;48.776;9.280;2022-12-04T14:06:01;3.30;99.90
11619;DHT22;5865;48.776;9.280;2022-12-04T14:08:36;3.30;99.90
11619;DHT22;5865;48.776;9.280;2022-12-04T14:11:08;3.20;99.90
11619;DHT22;5865;48.776;9.280;2022-12-04T14:13:54;3.20;99.90
11619;DHT22;5865;48.776;9.280;2022-12-04T14:19:58;3.30;99.90
11619;DHT22;5865;48.776;9.280;2022-12-04T14:22:41;3.30;99.90
11619;DHT22;5865;48.776;9.280;2022-12-04T14:25:34;3.50;99.90
11619;DHT22;5865;48.776;9.280;2022-12-04T14:28:26;3.30;99.90
11619;DHT22;5865;48.776;9.280;2022-12-04T14:31:31;3.20;99.90
11619;DHT22;5865;48.776;9.280;2022-12-04T14:34:20;3.30;99.90
11619;DHT22;5865;48.776;9.280;2022-12-04T14:36:54;3.30;99.90
11619;DHT22;5865;48.776;9.280;2022-12-04T14:39:39;3.40;99.90
11619;DHT22;5865;48.776;9.280;2022-12-04T14:42:12;3.40;99.90
11619;DHT22;5865;48.776;9.280;2022-12-04T14:44:56;3.30;99.90
11619;DHT22;5865;48.776;9.280;2022-12-04T14:47:42;3.30;99.90
11619;DHT22;5865;48.776;9.280;2022-12-04T14:50:30;3.30;99.90
11619;DHT22;5865;48.776;9.280;2022-12-04T14:56:23;3.10;99.90
11619;DHT22;5865;48.776;9.280;2022-12-04T14:59:05;3.10;99.90
11619;DHT22;5865;48.776;9.280;2022-12-04T15:01:48;3.10;99.90
11619;DHT22;5865;48.776;9.280;2022-12-04T15:04:32;3.10;99.90
11619;DHT22;5865;48.776;9.280;2022-12-04T15:07:17;3.00;99.90
11619;DHT22;5865;48.776;9.280;2022-12-04T15:09:50;3.00;99.90
11619;DHT22;5865;48.776;9.280;2022-12-04T15:15:49;3.00;99.90
11619;DHT22;5865;48.776;9.280;2022-12-04T15:18:18;3.00;99.90
11619;DHT22;5865;48.776;9.280;2022-12-04T15:20:54;3.00;99.90
11619;DHT22;5865;48.776;9.280;2022-12-04T15:23:38;3.00;99.90
11619;DHT22;5865;48.776;9.280;2022-12-04T15:26:10;3.10;99.90
11619;DHT22;5865;48.776;9.280;2022-12-04T15:28:54;3.10;99.90
11619;DHT22;5865;48.776;9.280;2022-12-04T15:37:56;3.10;99.90
11619;DHT22;5865;48.776;9.280;2022-12-04T15:40:48;3.10;99.90
11619;DHT22;5865;48.776;9.280;2022-12-04T15:43:26;3.80;99.90
11619;DHT22;5865;48.776;9.280;2022-12-04T15:45:58;3.10;99.90
11619;DHT22;5865;48.776;9.280;2022-12-04T15:48:39;3.10;99.90
11619;DHT22;5865;48.776;9.280;2022-12-04T15:51:20;3.10;99.90
11619;DHT22;5865;48.776;9.280;2022-12-04T15:54:12;3.10;99.90
11619;DHT22;5865;48.776;9.280;2022-12-04T15:56:59;3.10;99.90
11619;DHT22;5865;48.776;9.280;2022-12-04T15:59:47;3.00;99.90
11619;DHT22;5865;48.776;9.280;2022-12-04T16:02:32;3.20;99.90
11619;DHT22;5865;48.776;9.280;2022-12-04T16:05:10;3.00;99.90
11619;DHT22;5865;48.776;9.280;2022-12-04T16:07:47;3.00;99.90
11619;DHT22;5865;48.776;9.280;2022-12-04T16:20:04;3.00;99.90
11619;DHT22;5865;48.776;9.280;2022-12-04T16:22:47;3.00;99.90
11619;DHT22;5865;48.776;9.280;2022-12-04T16:25:16;3.10;99.90
11619;DHT22;5865;48.776;9.280;2022-12-04T16:30:38;3.10;99.90
11619;DHT22;5865;48.776;9.280;2022-12-04T16:33:05;3.10;99.90
11619;DHT22;5865;48.776;9.280;2022-12-04T16:39:05;3.00;99.90
11619;DHT22;5865;48.776;9.280;2022-12-04T16:41:46;3.00;99.90
11619;DHT22;5865;48.776;9.280;2022-12-04T16:44:15;3.70;99.90
11619;DHT22;5865;48.776;9.280;2022-12-04T16:49:24;2.90;99.90
11619;DHT22;5865;48.776;9.280;2022-12-04T16:52:05;2.90;99.90
11619;DHT22;5865;48.776;9.280;2022-12-04T17:20:16;2.90;99.90
11619;DHT22;5865;48.776;9.280;2022-12-04T17:22:57;2.90;99.90
11619;DHT22;5865;48.776;9.280;2022-12-04T17:25:38;2.90;99.90
11619;DHT22;5865;48.776;9.280;2022-12-04T17:28:05;2.90;99.90
11619;DHT22;5865;48.776;9.280;2022-12-04T17:30:46;3.00;99.90
11619;DHT22;5865;48.776;9.280;2022-12-04T17:33:27;3.00;99.90
11619;DHT22;5865;48.776;9.280;2022-12-04T17:35:57;2.90;99.90
11619;DHT22;5865;48.776;9.280;2022-12-04T17:41:07;2.90;99.90
11619;DHT22;5865;48.776;9.280;2022-12-04T17:43:35;3.10;99.90
11619;DHT22;5865;48.776;9.280;2022-12-04T17:46:18;3.20;99.90
11619;DHT22;5865;48.776;9.280;2022-12-04T17:48:58;3.20;99.90
11619;DHT22;5865;48.776;9.280;2022-12-04T17:54:53;2.90;99.90
11619;DHT22;5865;48.776;9.280;2022-12-04T18:00:02;3.00;99.90
11619;DHT22;5865;48.776;9.280;2022-12-04T18:02:38;3.10;99.90
11619;DHT22;5865;48.776;9.280;2022-12-04T18:05:19;3.20;99.90
11619;DHT22;5865;48.776;9.280;2022-12-04T18:07:59;3.10;99.90
11619;DHT22;5865;48.776;9.280;2022-12-04T18:10:44;3.10;99.90
11619;DHT22;5865;48.776;9.280;2022-12-04T18:13:25;3.20;99.90
11619;DHT22;5865;48.776;9.280;2022-12-04T18:15:53;3.20;99.90
11619;DHT22;5865;48.776;9.280;2022-12-04T18:18:35;4.10;99.90
11619;DHT22;5865;48.776;9.280;2022-12-04T18:21:16;3.20;99.90
11619;DHT22;5865;48.776;9.280;2022-12-04T18:23:57;3.30;99.90
11619;DHT22;5865;48.776;9.280;2022-12-04T18:54:28;2.90;99.90
11619;DHT22;5865;48.776;9.280;2022-12-04T18:59:50;3.00;99.90
11619;DHT22;5865;48.776;9.280;2022-12-04T19:02:18;3.00;99.90
11619;DHT22;5865;48.776;9.280;2022-12-04T19:04:58;3.00;99.90
11619;DHT22;5865;48.776;9.280;2022-12-04T19:10:34;3.10;99.90
11619;DHT22;5865;48.776;9.280;2022-12-04T19:13:03;3.10;99.90
11619;DHT22;5865;48.776;9.280;2022-12-04T19:15:31;3.10;99.90
11619;DHT22;5865;48.776;9.280;2022-12-04T19:17:58;3.10;99.90
11619;DHT22;5865;48.776;9.280;2022-12-04T19:20:26;3.10;99.90
11619;DHT22;5865;48.776;9.280;2022-12-04T19:22:53;3.10;99.90
11619;DHT22;5865;48.776;9.280;2022-12-04T19:25:54;3.20;99.90
11619;DHT22;5865;48.776;9.280;2022-12-04T19:33:30;3.00;99.90
11619;DHT22;5865;48.776;9.280;2022-12-04T19:36:12;3.00;99.90
11619;DHT22;5865;48.776;9.280;2022-12-04T19:48:02;3.10;99.90
11619;DHT22;5865;48.776;9.280;2022-12-04T19:55:51;3.10;99.90
11619;DHT22;5865;48.776;9.280;2022-12-04T20:00:59;3.00;99.90
11619;DHT22;5865;48.776;9.280;2022-12-04T20:03:33;3.00;99.90
11619;DHT22;5865;48.776;9.280;2022-12-04T20:06:16;3.10;99.90
11619;DHT22;5865;48.776;9.280;2022-12-04T20:08:59;3.00;99.90
11619;DHT22;5865;48.776;9.280;2022-12-04T20:11:40;3.00;99.90
11619;DHT22;5865;48.776;9.280;2022-12-04T21:57:05;3.20;99.90
11619;DHT22;5865;48.776;9.280;2022-12-04T21:59:46;3.20;99.90
11619;DHT22;5865;48.776;9.280;2022-12-04T22:02:27;3.20;99.90
11619;DHT22;5865;48.776;9.280;2022-12-04T22:05:10;3.20;99.90
11619;DHT22;5865;48.776;9.280;2022-12-04T22:07:47;3.20;99.90
11619;DHT22;5865;48.776;9.280;2022-12-04T22:35:36;3.20;99.90
11619;DHT22;5865;48.776;9.280;2022-12-04T22:38:04;3.20;99.90
11619;DHT22;5865;48.776;9.280;2022-12-04T22:48:13;3.20;99.90
11619;DHT22;5865;48.776;9.280;2022-12-04T22:50:55;3.20;99.90
11619;DHT22;5865;48.776;9.280;2022-12-04T22:56:05;3.20;99.90
11619;DHT22;5865;48.776;9.280;2022-12-04T22:58:34;3.20;99.90
11619;DHT22;5865;48.776;9.280;2022-12-04T23:03:35;3.30;99.90
11619;DHT22;5865;48.776;9.280;2022-12-04T23:26:11;3.20;99.90
11619;DHT22;5865;48.776;9.280;2022-12-04T23:28:52;3.10;99.90
11619;DHT22;5865;48.776;9.280;2022-12-04T23:34:14;3.10;99.90
11619;DHT22;5865;48.776;9.280;2022-12-04T23:36:45;3.00;99.90
11619;DHT22;5865;48.776;9.280;2022-12-04T23:41:43;3.10;99.90
11619;DHT22;5865;48.776;9.280;2022-12-04T23:44:24;3.10;99.90
11619;DHT22;5865;48.776;9.280;2022-12-04T23:52:04;3.00;99.90
11619;DHT22;5865;48.776;9.280;2022-12-04T23:54:33;3.00;99.90
11619;DHT22;5865;48.776;9.280;2022-12-04T23:59:43;3.00;99.90
